createdAt,value
2024-05-09T00:00:43.560Z,5.53
2024-05-09T00:03:12.096Z,4.83
2024-05-09T00:05:41.397Z,5.73
2024-05-09T00:08:10.422Z,6.20
2024-05-09T00:10:39.861Z,5.80
2024-05-09T00:13:09.963Z,6.73
2024-05-09T00:15:38.785Z,8.60
2024-05-09T00:18:07.718Z,6.50
2024-05-09T00:20:39.556Z,6.30
2024-05-09T00:23:11.635Z,6.50
2024-05-09T00:25:42.921Z,8.40
2024-05-09T00:28:14.458Z,7.60
2024-05-09T00:30:42.044Z,6.90
2024-05-09T00:33:10.855Z,6.63
2024-05-09T00:35:40.152Z,7.20
2024-05-09T00:38:08.224Z,7.30
2024-05-09T00:40:43.270Z,7.23
2024-05-09T00:43:12.946Z,6.53
2024-05-09T00:45:42.069Z,8.70
2024-05-09T00:48:13.423Z,7.90
2024-05-09T00:50:45.300Z,7.57
2024-05-09T00:53:15.244Z,7.90
2024-05-09T00:55:43.844Z,7.30
2024-05-09T00:58:13.787Z,9.70
2024-05-09T01:00:41.919Z,6.50
2024-05-09T01:03:12.007Z,7.27
2024-05-09T01:05:42.343Z,8.87
2024-05-09T01:08:11.726Z,7.13
2024-05-09T01:10:41.740Z,9.53
2024-05-09T01:13:11.524Z,8.70
2024-05-09T01:15:39.187Z,7.30
2024-05-09T01:18:11.297Z,9.17
2024-05-09T01:20:43.063Z,8.80
2024-05-09T01:23:15.331Z,7.40
2024-05-09T01:25:45.598Z,6.57
2024-05-09T01:28:14.154Z,7.23
2024-05-09T01:30:41.766Z,7.43
2024-05-09T01:33:12.210Z,9.80
2024-05-09T01:35:42.028Z,7.97
2024-05-09T01:38:16.925Z,7.13
2024-05-09T01:40:45.816Z,7.03
2024-05-09T01:43:13.728Z,10.00
2024-05-09T01:45:41.497Z,9.17
2024-05-09T01:48:10.307Z,7.60
2024-05-09T01:50:41.851Z,7.80
2024-05-09T01:53:13.613Z,9.60
2024-05-09T01:55:41.828Z,7.20
2024-05-09T01:58:09.581Z,8.67
2024-05-09T02:00:42.190Z,7.03
2024-05-09T02:03:16.217Z,6.27
2024-05-09T02:05:47.536Z,8.93
2024-05-09T02:08:17.724Z,7.70
2024-05-09T02:10:47.542Z,7.03
2024-05-09T02:13:16.718Z,8.60
2024-05-09T02:15:44.842Z,7.90
2024-05-09T02:18:13.129Z,8.13
2024-05-09T02:20:42.382Z,5.90
2024-05-09T02:23:10.677Z,7.63
2024-05-09T02:25:40.188Z,5.80
2024-05-09T02:28:07.759Z,7.50
2024-05-09T02:30:39.884Z,8.50
2024-05-09T02:33:12.462Z,8.07
2024-05-09T02:35:44.000Z,6.97
2024-05-09T02:38:12.643Z,8.50
2024-05-09T02:40:40.944Z,7.10
2024-05-09T02:43:13.247Z,7.90
2024-05-09T02:45:41.443Z,7.23
2024-05-09T02:48:13.364Z,7.40
2024-05-09T02:50:42.178Z,8.07
2024-05-09T02:53:14.387Z,7.57
2024-05-09T02:55:43.076Z,7.57
2024-05-09T02:58:11.707Z,7.10
2024-05-09T03:00:41.934Z,8.17
2024-05-09T03:03:13.366Z,7.63
2024-05-09T03:05:45.796Z,7.90
2024-05-09T03:08:14.690Z,8.17
2024-05-09T03:10:42.714Z,8.43
2024-05-09T03:13:14.883Z,8.07
2024-05-09T03:15:44.471Z,8.20
2024-05-09T03:18:12.967Z,7.20
2024-05-09T03:20:41.024Z,7.60
2024-05-09T03:23:09.893Z,10.67
2024-05-09T03:25:38.975Z,7.97
2024-05-09T03:28:07.773Z,8.27
2024-05-09T03:30:41.079Z,6.47
2024-05-09T03:33:13.174Z,7.33
2024-05-09T03:35:42.865Z,8.23
2024-05-09T03:38:10.509Z,7.80
2024-05-09T03:40:48.916Z,6.40
2024-05-09T03:43:22.006Z,6.90
2024-05-09T03:45:50.374Z,8.57
2024-05-09T03:48:18.112Z,8.83
2024-05-09T03:50:45.994Z,8.73
2024-05-09T03:53:15.491Z,8.00
2024-05-09T03:55:43.175Z,8.77
2024-05-09T03:58:12.816Z,8.47
2024-05-09T04:00:42.227Z,9.17
2024-05-09T04:03:12.694Z,11.57
2024-05-09T04:05:42.764Z,7.60
2024-05-09T04:08:15.412Z,10.00
2024-05-09T04:10:43.498Z,8.70
2024-05-09T04:13:11.304Z,9.00
2024-05-09T04:15:40.168Z,8.63
2024-05-09T04:18:09.006Z,8.47
2024-05-09T04:20:39.994Z,10.70
2024-05-09T04:23:12.618Z,8.13
2024-05-09T04:25:42.018Z,9.97
2024-05-09T04:28:10.739Z,9.70
2024-05-09T04:30:40.972Z,10.13
2024-05-09T04:33:35.030Z,11.10
2024-05-09T04:36:05.067Z,11.70
2024-05-09T04:38:33.332Z,9.93
2024-05-09T04:41:02.033Z,8.63
2024-05-09T04:43:29.787Z,10.50
2024-05-09T04:45:57.285Z,11.63
2024-05-09T04:48:25.024Z,10.90
2024-05-09T04:50:56.083Z,9.63
2024-05-09T04:53:23.573Z,10.27
2024-05-09T04:55:51.224Z,9.80
2024-05-09T04:58:18.875Z,10.30
2024-05-09T05:00:46.580Z,10.33
2024-05-09T05:03:15.843Z,11.57
2024-05-09T05:05:45.379Z,10.80
2024-05-09T05:08:16.476Z,11.20
2024-05-09T05:10:47.155Z,13.33
2024-05-09T05:13:24.928Z,10.20
2024-05-09T05:15:58.447Z,10.23
2024-05-09T05:18:27.854Z,9.83
2024-05-09T05:20:57.084Z,12.70
2024-05-09T05:23:25.544Z,9.40
2024-05-09T05:25:55.388Z,10.63
2024-05-09T05:28:23.583Z,9.23
2024-05-09T05:30:52.246Z,9.60
2024-05-09T05:33:20.442Z,12.40
2024-05-09T05:35:48.391Z,9.03
2024-05-09T05:38:17.350Z,9.93
2024-05-09T05:40:46.085Z,9.23
2024-05-09T05:43:18.314Z,9.97
2024-05-09T05:45:46.604Z,9.80
2024-05-09T05:48:18.215Z,9.63
2024-05-09T05:51:10.984Z,9.47
2024-05-09T05:53:38.763Z,8.23
2024-05-09T05:56:06.706Z,8.73
2024-05-09T05:58:34.404Z,8.40
2024-05-09T06:01:02.431Z,7.97
2024-05-09T06:03:30.177Z,9.43
2024-05-09T06:06:03.418Z,9.37
2024-05-09T06:08:31.096Z,7.13
2024-05-09T06:10:58.744Z,9.00
2024-05-09T06:13:26.320Z,6.83
2024-05-09T06:15:54.827Z,7.97
2024-05-09T06:18:22.528Z,7.43
2024-05-09T06:20:50.191Z,9.23
2024-05-09T06:23:22.192Z,7.13
2024-05-09T06:25:49.801Z,8.60
2024-05-09T06:28:17.331Z,6.00
2024-05-09T06:30:45.390Z,6.40
2024-05-09T06:33:14.940Z,6.03
2024-05-09T06:35:44.838Z,8.13
2024-05-09T06:38:12.903Z,7.17
2024-05-09T06:40:43.147Z,7.20
2024-05-09T06:43:18.965Z,6.17
2024-05-09T06:45:48.931Z,5.47
2024-05-09T06:48:19.726Z,5.90
2024-05-09T06:50:48.499Z,6.00
2024-05-09T06:53:17.313Z,6.00
2024-05-09T06:55:45.100Z,5.20
2024-05-09T06:58:12.707Z,6.00
2024-05-09T07:00:41.821Z,4.70
2024-05-09T07:03:12.938Z,4.97
2024-05-09T07:05:46.957Z,5.80
2024-05-09T07:08:16.140Z,5.30
2024-05-09T07:10:44.501Z,5.80
2024-05-09T07:13:13.329Z,6.73
2024-05-09T07:15:42.073Z,5.37
2024-05-09T07:18:18.450Z,5.50
2024-05-09T07:20:47.940Z,6.10
2024-05-09T07:23:16.358Z,8.23
2024-05-09T07:25:45.643Z,7.50
2024-05-09T07:28:15.252Z,5.97
2024-05-09T07:30:44.031Z,6.00
2024-05-09T07:33:23.180Z,6.03
2024-05-09T07:35:52.468Z,5.40
2024-05-09T07:38:20.752Z,6.20
2024-05-09T07:40:53.381Z,5.63
2024-05-09T07:43:21.741Z,6.13
2024-05-09T07:45:53.645Z,5.30
2024-05-09T07:52:39.286Z,7.20
2024-05-09T07:53:49.999Z,5.63
2024-05-09T07:56:23.122Z,5.73
2024-05-09T07:58:53.769Z,6.23
2024-05-09T08:01:22.133Z,6.63
2024-05-09T08:04:15.287Z,5.53
2024-05-09T08:06:43.500Z,6.13
2024-05-09T08:09:16.785Z,7.17
2024-05-09T08:11:47.021Z,5.93
2024-05-09T08:14:18.258Z,5.70
2024-05-09T08:16:46.041Z,6.17
2024-05-09T08:19:15.079Z,5.90
2024-05-09T08:21:42.611Z,6.93
2024-05-09T08:24:10.749Z,5.43
2024-05-09T08:26:39.271Z,4.77
2024-05-09T08:29:06.717Z,4.70
2024-05-09T08:31:38.450Z,5.40
2024-05-09T08:34:06.952Z,5.10
2024-05-09T08:36:34.841Z,6.00
2024-05-09T08:39:02.398Z,5.67
2024-05-09T08:41:32.474Z,5.60
2024-05-09T08:44:00.043Z,5.70
2024-05-09T08:46:29.257Z,6.73
2024-05-09T08:48:58.441Z,4.90
2024-05-09T08:51:26.205Z,5.97
2024-05-09T08:54:21.307Z,5.90
2024-05-09T08:56:50.092Z,4.93
2024-05-09T08:59:27.278Z,5.60
2024-05-09T09:01:55.379Z,5.07
2024-05-09T09:04:25.252Z,6.23
2024-05-09T09:07:19.201Z,4.73
2024-05-09T09:09:51.977Z,5.57
2024-05-09T09:12:20.300Z,6.03
2024-05-09T09:14:47.857Z,8.07
2024-05-09T09:17:17.042Z,4.87
2024-05-09T09:19:46.609Z,5.50
2024-05-09T09:22:15.169Z,7.43
2024-05-09T09:24:42.761Z,5.27
2024-05-09T09:27:13.344Z,6.23
2024-05-09T09:29:41.539Z,5.10
2024-05-09T09:32:10.605Z,7.03
2024-05-09T09:34:38.442Z,5.77
2024-05-09T09:37:10.906Z,6.70
2024-05-09T09:39:41.861Z,5.70
2024-05-09T09:42:11.544Z,6.03
2024-05-09T09:44:42.221Z,5.83
2024-05-09T09:47:14.850Z,6.87
2024-05-09T09:49:43.796Z,6.57
2024-05-09T09:52:13.567Z,6.43
2024-05-09T09:54:43.965Z,6.30
2024-05-09T09:57:12.012Z,7.47
2024-05-09T09:59:44.025Z,6.33
2024-05-09T10:02:13.860Z,6.50
2024-05-09T10:04:44.208Z,6.97
2024-05-09T10:07:13.707Z,7.27
2024-05-09T10:09:43.108Z,7.10
2024-05-09T10:12:14.416Z,6.53
2024-05-09T10:14:49.274Z,8.57
2024-05-09T10:17:16.900Z,6.37
2024-05-09T10:19:44.470Z,5.93
2024-05-09T10:22:12.149Z,5.80
2024-05-09T10:24:49.319Z,5.33
2024-05-09T10:27:29.832Z,4.63
2024-05-09T10:30:01.598Z,5.33
2024-05-09T10:32:38.695Z,5.97
2024-05-09T10:35:12.002Z,6.20
2024-05-09T10:37:39.915Z,5.87
2024-05-09T10:40:14.245Z,6.00
2024-05-09T10:42:47.432Z,5.10
2024-05-09T10:45:16.658Z,5.60
2024-05-09T10:47:45.743Z,7.17
2024-05-09T10:50:22.229Z,5.47
2024-05-09T10:52:55.721Z,4.77
2024-05-09T10:55:23.636Z,5.17
2024-05-09T10:57:51.956Z,8.00
2024-05-09T11:00:27.510Z,5.43
2024-05-09T11:03:00.884Z,5.00
2024-05-09T11:05:29.638Z,4.83
2024-05-09T11:07:57.399Z,4.37
2024-05-09T11:10:33.351Z,5.10
2024-05-09T11:13:02.093Z,4.80
2024-05-09T11:15:42.026Z,4.37
2024-05-09T11:18:25.447Z,4.87
2024-05-09T11:20:57.781Z,5.70
2024-05-09T11:23:28.385Z,4.93
2024-05-09T11:25:58.255Z,5.00
2024-05-09T11:28:29.022Z,4.60
2024-05-09T11:31:10.606Z,5.40
2024-05-09T11:33:44.180Z,7.00
2024-05-09T11:36:12.530Z,4.30
2024-05-09T11:38:40.469Z,5.50
2024-05-09T11:41:08.254Z,5.80
2024-05-09T11:43:35.912Z,5.30
2024-05-09T11:46:04.298Z,5.80
2024-05-09T11:48:32.520Z,6.73
2024-05-09T11:51:00.324Z,5.67
2024-05-09T11:53:27.803Z,4.30
2024-05-09T11:55:55.330Z,5.50
2024-05-09T11:58:23.561Z,4.23
2024-05-09T12:00:51.397Z,5.60
2024-05-09T12:03:19.138Z,4.40
2024-05-09T12:05:47.044Z,5.10
2024-05-09T12:08:15.490Z,5.13
2024-05-09T12:10:43.570Z,5.30
2024-05-09T12:13:11.188Z,8.13
2024-05-09T12:15:39.264Z,5.20
2024-05-09T12:18:08.326Z,6.77
2024-05-09T12:20:39.057Z,5.80
2024-05-09T12:23:10.126Z,6.40
2024-05-09T12:25:39.900Z,6.50
2024-05-09T12:28:08.609Z,7.10
2024-05-09T12:30:40.124Z,6.77
2024-05-09T12:33:13.201Z,6.37
2024-05-09T12:35:44.350Z,5.80
2024-05-09T12:38:15.292Z,6.87
2024-05-09T12:40:43.338Z,6.57
2024-05-09T12:43:12.039Z,7.90
2024-05-09T12:45:40.769Z,6.47
2024-05-09T12:48:12.291Z,4.97
2024-05-09T12:50:41.107Z,7.93
2024-05-09T12:53:09.783Z,7.50
2024-05-09T12:55:48.338Z,7.93
2024-05-09T12:58:22.961Z,6.57
2024-05-09T13:00:51.955Z,7.43
2024-05-09T13:03:19.850Z,7.60
2024-05-09T13:05:47.945Z,7.70
2024-05-09T13:08:15.716Z,7.43
2024-05-09T13:10:43.454Z,8.07
2024-05-09T13:13:11.446Z,8.40
2024-05-09T13:15:39.323Z,7.40
2024-05-09T13:18:07.591Z,8.90
2024-05-09T13:20:36.577Z,7.50
2024-05-09T13:23:29.426Z,7.47
2024-05-09T13:25:57.017Z,6.30
2024-05-09T13:28:24.970Z,7.57
2024-05-09T13:30:52.683Z,7.73
2024-05-09T13:33:20.827Z,7.97
2024-05-09T13:35:50.676Z,7.80
2024-05-09T13:38:20.839Z,6.27
2024-05-09T13:40:49.400Z,7.53
2024-05-09T13:43:18.293Z,8.17
2024-05-09T13:45:46.539Z,7.40
2024-05-09T13:48:14.478Z,7.87
2024-05-09T13:50:42.137Z,6.97
2024-05-09T13:53:09.623Z,6.30
2024-05-09T13:55:40.796Z,8.70
2024-05-09T13:58:10.034Z,8.60
2024-05-09T14:00:45.253Z,7.87
2024-05-09T14:03:18.668Z,6.27
2024-05-09T14:05:50.217Z,6.40
2024-05-09T14:08:19.831Z,8.60
2024-05-09T14:10:48.999Z,5.63
2024-05-09T14:13:17.194Z,7.97
2024-05-09T14:15:46.449Z,7.47
2024-05-09T14:18:14.719Z,6.57
2024-05-09T14:20:43.079Z,8.90
2024-05-09T14:23:10.949Z,8.80
2024-05-09T14:25:42.305Z,6.87
2024-05-09T14:28:12.683Z,7.20
2024-05-09T14:30:41.839Z,6.87
2024-05-09T14:33:09.903Z,6.63
2024-05-09T14:35:38.665Z,5.20
2024-05-09T14:38:08.029Z,4.93
2024-05-09T14:40:41.888Z,6.53
2024-05-09T14:43:13.850Z,6.23
2024-05-09T14:45:42.306Z,7.40
2024-05-09T14:48:10.787Z,5.27
2024-05-09T14:50:40.275Z,5.83
2024-05-09T14:53:10.062Z,7.40
2024-05-09T14:55:42.628Z,5.80
2024-05-09T14:58:12.345Z,6.07
2024-05-09T15:00:46.341Z,7.23
2024-05-09T15:03:18.735Z,6.10
2024-05-09T15:05:47.700Z,8.23
2024-05-09T15:08:17.402Z,8.70
2024-05-09T15:10:45.901Z,8.63
2024-05-09T15:13:16.560Z,9.20
2024-05-09T15:15:45.168Z,8.50
2024-05-09T15:18:13.819Z,10.03
2024-05-09T15:20:42.327Z,10.00
2024-05-09T15:23:10.444Z,9.80
2024-05-09T15:25:38.080Z,10.60
2024-05-09T15:28:07.616Z,9.80
2024-05-09T15:30:36.152Z,9.40
2024-05-09T15:33:04.867Z,12.30
2024-05-09T15:35:34.003Z,11.57
2024-05-09T15:38:04.032Z,11.10
2024-05-09T15:40:38.892Z,12.53
2024-05-09T15:43:10.894Z,13.17
2024-05-09T15:45:40.609Z,10.50
2024-05-09T15:48:09.882Z,12.03
2024-05-09T15:50:40.926Z,12.17
2024-05-09T15:53:11.902Z,13.77
2024-05-09T15:55:40.342Z,12.13
2024-05-09T15:58:08.158Z,10.53
2024-05-09T16:00:39.823Z,12.83
2024-05-09T16:03:11.493Z,12.40
2024-05-09T16:05:41.013Z,11.17
2024-05-09T16:08:09.399Z,12.23
2024-05-09T16:10:43.207Z,10.77
2024-05-09T16:13:12.379Z,10.13
2024-05-09T16:15:40.222Z,10.27
2024-05-09T16:18:08.374Z,12.03
2024-05-09T16:20:40.207Z,11.30
2024-05-09T16:23:10.395Z,9.40
2024-05-09T16:25:48.402Z,8.63
2024-05-09T16:28:19.082Z,9.30
2024-05-09T16:30:46.849Z,10.20
2024-05-09T16:33:14.834Z,8.90
2024-05-09T16:35:42.715Z,11.70
2024-05-09T16:38:10.725Z,9.80
2024-05-09T16:40:40.745Z,9.57
2024-05-09T16:43:10.588Z,13.80
2024-05-09T16:45:40.575Z,10.33
2024-05-09T16:48:08.947Z,11.10
2024-05-09T16:50:37.506Z,9.63
2024-05-09T16:53:06.271Z,10.37
2024-05-09T16:55:35.571Z,9.80
2024-05-09T16:58:05.094Z,8.90
2024-05-09T17:00:40.782Z,7.57
2024-05-09T17:03:13.590Z,8.27
2024-05-09T17:05:43.066Z,7.13
2024-05-09T17:08:11.596Z,10.10
2024-05-09T17:10:39.230Z,7.10
2024-05-09T17:13:08.066Z,6.20
2024-05-09T17:15:37.589Z,9.70
2024-05-09T17:18:07.384Z,8.53
2024-05-09T17:20:37.652Z,9.50
2024-05-09T17:23:14.805Z,8.97
2024-05-09T17:25:42.913Z,8.20
2024-05-09T17:28:11.480Z,8.73
2024-05-09T17:30:41.020Z,7.50
2024-05-09T17:33:11.236Z,7.97
2024-05-09T17:35:40.483Z,7.13
2024-05-09T17:38:34.083Z,7.73
2024-05-09T17:41:02.106Z,7.50
2024-05-09T17:43:30.585Z,7.00
2024-05-09T17:46:02.082Z,6.93
2024-05-09T17:48:30.455Z,6.53
2024-05-09T17:50:58.024Z,6.63
2024-05-09T17:53:25.509Z,6.23
2024-05-09T17:55:55.759Z,6.77
2024-05-09T17:58:23.403Z,6.37
2024-05-09T18:00:50.949Z,7.57
2024-05-09T18:03:19.891Z,6.57
2024-05-09T18:05:47.518Z,6.97
2024-05-09T18:08:15.072Z,7.10
2024-05-09T18:10:44.507Z,6.23
2024-05-09T18:13:13.455Z,6.70
2024-05-09T18:15:41.668Z,7.40
2024-05-09T18:18:10.708Z,7.30
2024-05-09T18:20:43.827Z,6.07
2024-05-09T18:23:16.232Z,7.07
2024-05-09T18:25:45.885Z,6.40
2024-05-09T18:28:14.430Z,6.47
2024-05-09T18:30:43.162Z,6.37
2024-05-09T18:33:11.539Z,6.00
2024-05-09T18:35:43.996Z,7.03
2024-05-09T18:38:18.999Z,8.60
2024-05-09T18:40:49.967Z,6.10
2024-05-09T18:43:20.255Z,8.30
2024-05-09T18:45:51.368Z,9.90
2024-05-09T18:48:19.051Z,6.63
2024-05-09T18:50:46.844Z,7.87
2024-05-09T18:53:16.130Z,7.37
2024-05-09T18:55:44.079Z,7.03
2024-05-09T18:58:11.983Z,7.67
2024-05-09T19:00:42.598Z,6.37
2024-05-09T19:03:14.546Z,6.90
2024-05-09T19:05:44.686Z,7.47
2024-05-09T19:08:15.418Z,8.87
2024-05-09T19:10:45.809Z,9.93
2024-05-09T19:13:14.575Z,7.67
2024-05-09T19:15:43.540Z,8.33
2024-05-09T19:18:13.368Z,8.13
2024-05-09T19:20:43.028Z,7.87
2024-05-09T19:23:12.057Z,7.97
2024-05-09T19:25:41.737Z,9.47
2024-05-09T19:28:09.402Z,8.33
2024-05-09T19:30:40.949Z,8.40
2024-05-09T19:33:13.334Z,9.10
2024-05-09T19:35:43.971Z,9.17
2024-05-09T19:38:12.163Z,8.60
2024-05-09T19:40:39.753Z,9.53
2024-05-09T19:43:07.430Z,9.60
2024-05-09T19:45:36.496Z,8.70
2024-05-09T19:48:06.221Z,9.63
2024-05-09T19:50:41.751Z,9.50
2024-05-09T19:53:12.836Z,10.70
2024-05-09T19:55:41.487Z,10.77
2024-05-09T19:58:10.353Z,11.47
2024-05-09T20:00:41.389Z,11.00
2024-05-09T20:03:15.099Z,10.80
2024-05-09T20:05:46.889Z,11.43
2024-05-09T20:08:15.211Z,12.13
2024-05-09T20:10:44.045Z,13.27
2024-05-09T20:13:13.637Z,15.17
2024-05-09T20:15:45.253Z,11.73
2024-05-09T20:18:13.107Z,11.27
2024-05-09T20:20:43.050Z,10.50
2024-05-09T20:23:16.284Z,10.90
2024-05-09T20:25:43.967Z,9.97
2024-05-09T20:28:12.492Z,10.83
2024-05-09T20:30:40.241Z,11.53
2024-05-09T20:33:09.163Z,8.77
2024-05-09T20:35:37.497Z,11.60
2024-05-09T20:38:05.638Z,9.93
2024-05-09T20:40:37.538Z,10.00
2024-05-09T20:43:10.542Z,11.27
2024-05-09T20:45:39.014Z,11.10
2024-05-09T20:48:10.082Z,10.83
2024-05-09T20:50:41.810Z,12.17
2024-05-09T20:53:14.470Z,13.37
2024-05-09T20:55:45.871Z,9.50
2024-05-09T20:58:13.885Z,10.33
2024-05-09T21:00:44.692Z,12.57
2024-05-09T21:03:17.020Z,10.23
2024-05-09T21:05:48.260Z,11.30
2024-05-09T21:08:17.018Z,9.53
2024-05-09T21:10:44.920Z,9.03
2024-05-09T21:13:12.602Z,7.80
2024-05-09T21:15:41.411Z,8.27
2024-05-09T21:18:09.728Z,9.63
2024-05-09T21:20:37.672Z,10.20
2024-05-09T21:23:05.516Z,10.10
2024-05-09T21:25:33.309Z,9.97
2024-05-09T21:28:01.153Z,9.27
2024-05-09T21:30:38.489Z,8.87
2024-05-09T21:33:12.887Z,10.27
2024-05-09T21:35:45.501Z,8.67
2024-05-09T21:38:14.697Z,10.53
2024-05-09T21:40:43.093Z,10.87
2024-05-09T21:43:10.741Z,10.13
2024-05-09T21:45:38.470Z,9.50
2024-05-09T21:48:07.172Z,8.80
2024-05-09T21:50:40.238Z,10.33
2024-05-09T21:53:13.901Z,10.00
2024-05-09T21:55:42.712Z,10.63
2024-05-09T21:58:12.272Z,10.67
2024-05-09T22:00:42.765Z,10.30
2024-05-09T22:03:11.980Z,11.17
2024-05-09T22:05:43.417Z,10.27
2024-05-09T22:08:11.346Z,10.33
2024-05-09T22:10:39.059Z,9.80
2024-05-09T22:13:07.059Z,10.63
2024-05-09T22:15:36.966Z,10.40
2024-05-09T22:18:08.649Z,9.10
2024-05-09T22:20:39.332Z,10.13
2024-05-09T22:23:08.575Z,9.93
2024-05-09T22:25:37.248Z,9.27
2024-05-09T22:28:05.823Z,10.60
2024-05-09T22:30:37.577Z,9.50
2024-05-09T22:33:09.177Z,10.40
2024-05-09T22:35:38.253Z,10.27
2024-05-09T22:38:05.986Z,10.33
2024-05-09T22:40:42.996Z,9.70
2024-05-09T22:43:21.029Z,9.70
2024-05-09T22:45:50.570Z,10.07
2024-05-09T22:48:19.077Z,9.53
2024-05-09T22:50:47.011Z,8.80
2024-05-09T22:53:14.692Z,8.93
2024-05-09T22:55:42.574Z,8.77
2024-05-09T22:58:10.214Z,9.17
2024-05-09T23:00:37.871Z,9.87
2024-05-09T23:03:06.080Z,9.10
2024-05-09T23:05:34.271Z,9.67
2024-05-09T23:08:02.803Z,9.13
2024-05-09T23:10:36.010Z,8.67
2024-05-09T23:13:09.231Z,9.40
2024-05-09T23:15:39.764Z,9.37
2024-05-09T23:18:07.968Z,9.13
2024-05-09T23:20:38.886Z,7.70
2024-05-09T23:23:09.981Z,9.60
2024-05-09T23:25:39.172Z,9.60
2024-05-09T23:28:07.881Z,10.30
2024-05-09T23:30:38.973Z,9.33
2024-05-09T23:33:11.949Z,10.50
2024-05-09T23:35:41.701Z,9.33
2024-05-09T23:38:09.279Z,9.50
2024-05-09T23:40:39.936Z,9.70
2024-05-09T23:43:11.625Z,9.43
2024-05-09T23:45:42.137Z,8.57
2024-05-09T23:48:11.053Z,9.73
2024-05-09T23:50:40.209Z,10.30
2024-05-09T23:53:09.465Z,12.10
2024-05-09T23:55:38.017Z,10.83
2024-05-09T23:58:09.738Z,10.30
